Time;durP1;ratioP1;P1;durP2;ratioP2;P2;SDS_P1;SDS_P2;PMS_P1;PMS_P2;Temp;Humidity;BMP_temperature;BMP_pressure;BME280_temperature;BME280_humidity;BME280_pressure;Samples;Min_cycle;Max_cycle;Signal;HPM_P1;HPM_P2
2022/06/11 00:01:52;;;;;;;12.75;4.88;;;;;;;19.49;84.47;101979.44;5027232;28;20046;-47
2022/06/11 00:04:41;;;;;;;10.55;4.25;;;;;;;19.46;84.31;101991.09;5003932;28;20054;-48
2022/06/11 00:07:29;;;;;;;9.85;3.75;;;;;;;19.44;84.05;101982.28;5032256;28;20045;-46
2022/06/11 00:10:18;;;;;;;12.70;4.35;;;;;;;19.40;83.50;101981.22;5023769;28;20042;-47
2022/06/11 00:13:06;;;;;;;13.07;4.45;;;;;;;19.37;83.39;101988.19;5030309;28;20045;-48
2022/06/11 00:15:55;;;;;;;8.63;3.55;;;;;;;19.34;82.75;101985.22;5018841;28;20091;-46
2022/06/11 00:18:44;;;;;;;9.82;3.60;;;;;;;19.32;82.37;101991.03;5024036;28;20124;-47
2022/06/11 00:21:34;;;;;;;7.10;3.25;;;;;;;19.29;81.92;101988.88;5034096;28;20448;-47
2022/06/11 00:24:23;;;;;;;6.07;3.28;;;;;;;19.29;81.98;101990.78;5013595;28;20050;-47
2022/06/11 00:27:12;;;;;;;7.57;3.33;;;;;;;19.26;81.57;101980.34;5028519;28;20046;-47
2022/06/11 00:29:59;;;;;;;7.28;3.70;;;;;;;19.22;81.79;101982.03;5029786;28;20052;-47
2022/06/11 00:32:47;;;;;;;8.80;3.58;;;;;;;19.22;81.43;101982.91;5034083;28;20107;-46
2022/06/11 00:35:38;;;;;;;7.13;2.92;;;;;;;19.19;81.58;101977.94;5021778;28;20046;-47
2022/06/11 00:38:26;;;;;;;7.32;3.20;;;;;;;19.19;81.36;101982.66;5028606;28;20045;-46
2022/06/11 00:41:13;;;;;;;9.30;3.63;;;;;;;19.16;81.44;101984.88;5029065;28;20054;-48
2022/06/11 00:44:01;;;;;;;8.40;3.50;;;;;;;19.14;81.60;101978.84;5021905;28;20056;-47
2022/06/11 00:47:10;;;;;;;7.97;3.13;;;;;;;19.14;81.54;101983.53;5033022;28;20473;-47
2022/06/11 00:49:59;;;;;;;6.45;3.10;;;;;;;19.11;81.62;101979.44;5025156;28;20514;-46
2022/06/11 00:52:48;;;;;;;6.50;3.20;;;;;;;19.11;81.88;101973.91;5023492;28;20041;-45
2022/06/11 00:55:37;;;;;;;6.57;3.20;;;;;;;19.10;81.98;101972.28;5030947;28;20092;-47
2022/06/11 00:58:30;;;;;;;7.72;3.17;;;;;;;19.10;81.82;101980.56;5024440;28;20038;-50
2022/06/11 01:01:20;;;;;;;7.18;3.40;;;;;;;19.08;81.76;101974.50;5026288;28;20489;-49
2022/06/11 01:04:39;;;;;;;9.77;3.63;;;;;;;19.07;81.87;101977.56;5031293;28;20095;-48
2022/06/11 01:07:48;;;;;;;6.57;3.33;;;;;;;19.06;81.77;101973.97;5033049;28;20045;-48
2022/06/11 01:10:47;;;;;;;8.20;3.38;;;;;;;19.04;81.98;101973.47;5033257;28;20049;-51
2022/06/11 01:13:57;;;;;;;6.85;3.78;;;;;;;19.01;82.10;101974.06;5025013;28;20053;-51
2022/06/11 01:16:57;;;;;;;10.68;4.20;;;;;;;18.98;82.14;101974.66;5017272;28;20060;-51
2022/06/11 01:20:06;;;;;;;8.40;3.88;;;;;;;18.94;82.08;101968.91;5021032;28;20188;-47
2022/06/11 01:23:08;;;;;;;6.13;3.33;;;;;;;18.90;82.14;101967.03;5030303;28;20056;-47
2022/06/11 01:26:02;;;;;;;7.13;3.58;;;;;;;18.88;82.35;101967.34;5026554;28;20061;-52
2022/06/11 01:29:22;;;;;;;8.68;3.60;;;;;;;18.86;82.31;101969.56;5014630;28;20061;-52
2022/06/11 01:32:11;;;;;;;8.85;3.70;;;;;;;18.85;82.19;101969.84;5013557;28;20054;-49
2022/06/11 01:35:17;;;;;;;6.80;3.33;;;;;;;18.84;82.22;101970.97;5024118;28;20503;-50
2022/06/11 01:38:38;;;;;;;8.68;3.90;;;;;;;18.82;82.21;101964.94;5030083;28;20045;-48
2022/06/11 01:41:40;;;;;;;8.30;3.40;;;;;;;18.78;82.29;101967.44;5025392;28;20504;-46
2022/06/11 01:44:32;;;;;;;6.93;3.58;;;;;;;18.69;82.68;101971.97;5019278;28;20080;-47
2022/06/11 01:47:19;;;;;;;8.93;3.88;;;;;;;18.67;82.85;101969.50;5015357;28;20050;-48
2022/06/11 01:50:08;;;;;;;8.65;3.47;;;;;;;18.65;83.02;101968.16;5012314;28;20053;-48
2022/06/11 01:53:17;;;;;;;10.18;3.97;;;;;;;18.63;82.88;101962.91;5016080;28;20050;-48
2022/06/11 01:56:20;;;;;;;8.35;3.35;;;;;;;18.62;83.17;101971.50;5021283;28;20557;-48
2022/06/11 01:59:39;;;;;;;9.85;4.03;;;;;;;18.60;83.35;101966.25;5019988;28;20045;-47
2022/06/11 02:02:26;;;;;;;5.80;3.25;;;;;;;18.57;83.59;101971.53;5021780;28;20136;-46
2022/06/11 02:05:20;;;;;;;8.20;3.42;;;;;;;18.55;83.71;101968.28;5025058;28;20050;-49
2022/06/11 02:08:29;;;;;;;8.60;3.35;;;;;;;18.54;83.82;101970.19;5024294;28;20045;-46
2022/06/11 02:11:36;;;;;;;10.60;3.70;;;;;;;18.52;83.80;101972.44;5013732;28;20041;-48
2022/06/11 02:14:44;;;;;;;8.52;3.38;;;;;;;18.52;83.74;101967.75;5016900;28;20056;-46
2022/06/11 02:17:36;;;;;;;8.48;3.80;;;;;;;18.48;83.93;101966.69;4992796;28;1090212;-48
2022/06/11 02:20:28;;;;;;;9.65;3.47;;;;;;;18.47;83.97;101972.47;5016492;28;20041;-46
2022/06/11 02:23:25;;;;;;;7.53;3.70;;;;;;;18.47;84.12;101970.56;5028434;28;20041;-46
2022/06/11 02:26:20;;;;;;;8.70;3.65;;;;;;;18.48;83.93;101977.72;5026242;28;20496;-47
2022/06/11 02:29:09;;;;;;;8.32;4.03;;;;;;;18.46;84.02;101979.13;5025127;28;20050;-47
2022/06/11 02:32:03;;;;;;;10.48;3.58;;;;;;;18.42;84.09;101984.41;5018913;28;20041;-47
2022/06/11 02:34:55;;;;;;;7.05;3.30;;;;;;;18.42;84.24;101978.06;5030662;28;20085;-47
2022/06/11 02:37:45;;;;;;;6.10;3.17;;;;;;;18.42;84.28;101975.31;5022278;28;20057;-47
2022/06/11 02:40:37;;;;;;;8.55;3.42;;;;;;;18.41;84.31;101973.66;5025290;28;20128;-46
2022/06/11 02:43:24;;;;;;;9.60;4.03;;;;;;;18.40;84.27;101978.38;5028296;28;20397;-47
2022/06/11 02:49:25;;;;;;;5.65;3.00;;;;;;;18.39;84.35;101985.00;5020657;28;20049;-46
2022/06/11 02:52:18;;;;;;;7.75;3.58;;;;;;;18.37;84.38;101983.63;5026882;28;20049;-44
2022/06/11 02:55:06;;;;;;;9.65;3.95;;;;;;;18.36;84.39;101990.28;5031181;28;20393;-48
2022/06/11 02:57:54;;;;;;;7.07;3.17;;;;;;;18.33;84.59;101999.13;5021793;28;20050;-45
2022/06/11 03:00:45;;;;;;;6.60;3.60;;;;;;;18.30;84.60;101997.78;5008904;28;20046;-46
2022/06/11 03:03:33;;;;;;;18.23;3.85;;;;;;;18.28;84.50;102000.84;5031849;28;20056;-47
2022/06/11 03:06:22;;;;;;;7.90;3.30;;;;;;;18.26;84.66;102003.06;5034557;28;20128;-46
2022/06/11 03:09:14;;;;;;;6.85;3.42;;;;;;;18.23;84.54;102006.41;5030735;28;20456;-47
2022/06/11 03:12:04;;;;;;;6.95;3.70;;;;;;;18.22;84.69;102007.50;5021291;28;20045;-47
2022/06/11 03:14:52;;;;;;;8.95;3.17;;;;;;;18.20;84.58;102009.72;5035652;28;20046;-49
2022/06/11 03:17:40;;;;;;;6.15;3.10;;;;;;;18.19;84.52;102010.84;5030223;28;20056;-48
2022/06/11 03:20:31;;;;;;;7.20;3.35;;;;;;;18.18;84.18;102016.66;5031072;28;20053;-49
2022/06/11 03:23:19;;;;;;;7.05;3.47;;;;;;;18.14;84.06;102016.44;5019305;28;20050;-49
2022/06/11 03:26:07;;;;;;;5.65;3.10;;;;;;;18.14;84.02;102019.19;5021030;28;20041;-48
2022/06/11 03:28:54;;;;;;;10.25;2.97;;;;;;;18.13;83.54;102017.53;5025890;28;20412;-49
2022/06/11 03:31:44;;;;;;;7.78;3.08;;;;;;;18.13;83.47;102023.03;5019186;28;20049;-49
2022/06/11 03:34:31;;;;;;;8.20;3.40;;;;;;;18.13;83.31;102020.28;5032311;28;20056;-46
2022/06/11 03:37:19;;;;;;;9.88;3.67;;;;;;;18.12;83.09;102026.91;5030997;28;20400;-49
2022/06/11 03:40:08;;;;;;;7.70;3.17;;;;;;;18.09;83.09;102025.56;5014607;28;20136;-47
2022/06/11 03:42:56;;;;;;;10.07;3.00;;;;;;;18.10;82.94;102029.97;5024458;28;20424;-48
2022/06/11 03:45:44;;;;;;;6.38;3.55;;;;;;;18.10;82.96;102040.19;5024530;28;20057;-46
2022/06/11 03:48:33;;;;;;;7.80;3.30;;;;;;;18.09;82.69;102030.28;5020853;28;20038;-48
2022/06/11 03:51:22;;;;;;;7.18;3.20;;;;;;;18.09;82.92;102041.31;5023729;28;20050;-48
2022/06/11 03:54:10;;;;;;;7.90;3.20;;;;;;;18.08;82.46;102047.91;5027733;28;20042;-48
2022/06/11 03:56:58;;;;;;;5.90;2.72;;;;;;;18.04;82.24;102042.16;5032627;28;20492;-48
2022/06/11 03:59:45;;;;;;;6.90;2.88;;;;;;;18.01;81.86;102045.47;5033295;28;20052;-48
2022/06/11 04:02:33;;;;;;;6.03;3.10;;;;;;;18.00;81.85;102052.13;5021817;28;20492;-52
2022/06/11 04:05:21;;;;;;;9.13;3.05;;;;;;;18.01;82.22;102056.50;5026866;28;20037;-47
2022/06/11 04:08:09;;;;;;;6.10;3.10;;;;;;;18.04;82.21;102061.47;5033268;28;20056;-49
2022/06/11 04:10:58;;;;;;;7.43;3.40;;;;;;;18.04;81.85;102060.66;5022577;28;20049;-48
2022/06/11 04:13:47;;;;;;;7.60;3.15;;;;;;;18.03;81.99;102067.25;5030217;28;20050;-48
2022/06/11 04:16:43;;;;;;;7.50;3.10;;;;;;;18.06;81.77;102063.91;5008482;28;20070;-47
2022/06/11 04:19:34;;;;;;;6.50;3.25;;;;;;;18.05;81.79;102060.34;5020695;28;20046;-50
2022/06/11 04:22:22;;;;;;;8.32;3.40;;;;;;;18.06;80.85;102064.78;5030735;28;20041;-47
2022/06/11 04:25:13;;;;;;;8.90;3.22;;;;;;;17.98;80.98;102067.31;5024927;28;20054;-50
2022/06/11 04:28:01;;;;;;;7.53;3.40;;;;;;;17.97;80.96;102069.25;5021604;28;20082;-48
2022/06/11 04:30:48;;;;;;;9.80;3.42;;;;;;;17.94;80.14;102069.81;5028022;28;20403;-46
2022/06/11 04:33:36;;;;;;;8.13;3.53;;;;;;;17.93;79.83;102067.34;5026257;28;20472;-51
2022/06/11 04:36:26;;;;;;;9.00;3.45;;;;;;;17.91;79.11;102077.84;5032355;28;20056;-50
2022/06/11 04:39:16;;;;;;;11.93;3.58;;;;;;;17.89;78.69;102083.63;5032446;28;20049;-50
2022/06/11 04:41:56;;;;;;;12.35;4.00;;;;;;;17.88;78.65;102085.56;5019334;28;20054;-48
2022/06/11 04:44:45;;;;;;;8.93;2.95;;;;;;;17.89;78.04;102080.88;5026552;28;20602;-49
2022/06/11 04:47:33;;;;;;;11.30;3.17;;;;;;;17.86;77.37;102086.97;5022198;28;20049;-49
2022/06/11 04:50:21;;;;;;;10.30;3.28;;;;;;;17.86;77.33;102085.03;5027499;28;20053;-49
2022/06/11 04:53:09;;;;;;;8.65;2.95;;;;;;;17.86;75.93;102075.94;5022643;28;20049;-49
2022/06/11 04:55:57;;;;;;;10.55;3.20;;;;;;;17.79;75.77;102090.00;5033312;28;20053;-48
2022/06/11 04:58:46;;;;;;;9.88;3.30;;;;;;;17.76;75.80;102087.00;5027929;28;20496;-49
2022/06/11 05:01:34;;;;;;;11.63;3.53;;;;;;;17.76;75.48;102092.53;5018306;28;20037;-49
2022/06/11 05:04:22;;;;;;;11.05;3.63;;;;;;;17.78;74.82;102098.59;5022707;28;20060;-48
2022/06/11 05:07:11;;;;;;;11.60;3.55;;;;;;;17.75;74.93;102094.47;5033881;28;20099;-51
2022/06/11 05:09:59;;;;;;;12.70;4.00;;;;;;;17.77;74.41;102088.66;5023508;28;20056;-52
2022/06/11 05:12:47;;;;;;;12.38;3.63;;;;;;;17.75;73.69;102080.69;5017777;28;20457;-46
2022/06/11 05:15:37;;;;;;;12.00;3.47;;;;;;;17.71;72.97;102087.88;5031646;28;20508;-47
2022/06/11 05:18:27;;;;;;;9.45;3.10;;;;;;;17.70;73.04;102088.13;5030085;28;20061;-52
2022/06/11 05:21:21;;;;;;;12.27;3.33;;;;;;;17.70;73.30;102088.13;5012383;28;20096;-52
2022/06/11 05:24:09;;;;;;;12.75;3.17;;;;;;;17.72;72.63;102089.50;5014917;28;20053;-47
2022/06/11 05:27:00;;;;;;;11.10;3.85;;;;;;;17.69;72.20;102092.84;5025540;28;20125;-50
2022/06/11 05:29:55;;;;;;;11.00;3.42;;;;;;;17.70;72.63;102096.41;5023463;28;20053;-49
2022/06/11 05:32:43;;;;;;;13.20;3.50;;;;;;;17.73;72.50;102104.13;5030277;28;20076;-46
2022/06/11 05:35:33;;;;;;;14.00;3.40;;;;;;;17.73;72.27;102109.66;5010380;28;20045;-48
2022/06/11 05:38:11;;;;;;;12.23;3.57;;;;;;;17.73;71.86;102104.94;5000313;28;20115;-48
2022/06/11 05:40:59;;;;;;;14.45;4.15;;;;;;;17.73;71.20;102102.19;5021014;28;20348;-51
2022/06/11 05:43:47;;;;;;;10.55;3.47;;;;;;;17.73;71.55;102109.66;5018116;28;20400;-53
2022/06/11 05:46:35;;;;;;;14.27;4.10;;;;;;;17.73;71.04;102107.72;5021688;28;20132;-52
2022/06/11 05:49:27;;;;;;;15.63;3.55;;;;;;;17.72;70.07;102103.28;5022039;28;20060;-50
2022/06/11 05:52:23;;;;;;;13.70;3.50;;;;;;;17.71;70.15;102096.13;5020197;28;20046;-50
2022/06/11 05:55:21;;;;;;;15.00;3.38;;;;;;;17.71;70.08;102107.16;5020801;28;20042;-52
2022/06/11 05:58:11;;;;;;;20.85;4.05;;;;;;;17.68;70.07;102113.25;5030801;28;20053;-51
2022/06/11 06:01:00;;;;;;;16.52;3.95;;;;;;;17.65;70.35;102103.63;5022559;28;20097;-54
2022/06/11 06:03:47;;;;;;;14.23;3.80;;;;;;;17.63;70.37;102110.50;5015276;28;20041;-51
2022/06/11 06:06:35;;;;;;;15.13;4.10;;;;;;;17.63;70.26;102107.75;5032457;28;20124;-51
2022/06/11 06:09:23;;;;;;;14.75;4.10;;;;;;;17.64;70.38;102106.66;5024586;28;20046;-49
2022/06/11 06:11:54;;;;;;;13.45;3.88;;;;;;;17.66;70.84;102116.28;5026024;28;20080;-50
2022/06/11 06:14:42;;;;;;;18.85;4.38;;;;;;;17.71;70.90;102118.19;5025352;28;20053;-52
2022/06/11 06:17:29;;;;;;;14.07;3.80;;;;;;;17.75;71.02;102123.94;5017270;28;20048;-48
2022/06/11 06:20:22;;;;;;;18.10;4.20;;;;;;;17.78;71.43;102115.13;5032389;28;20053;-50
2022/06/11 06:23:10;;;;;;;19.42;5.32;;;;;;;17.78;71.70;102113.19;5022340;28;20416;-49
2022/06/11 06:25:49;;;;;;;18.27;4.63;;;;;;;17.79;71.40;102116.75;5016312;28;20073;-49
2022/06/11 06:28:37;;;;;;;21.17;5.80;;;;;;;17.77;71.14;102124.50;5030804;28;20053;-49
2022/06/11 06:31:25;;;;;;;18.17;5.03;;;;;;;17.71;71.28;102120.94;5018642;28;20069;-49
2022/06/11 06:34:13;;;;;;;18.67;5.05;;;;;;;17.66;72.03;102126.50;5033521;28;20041;-48
2022/06/11 06:37:00;;;;;;;20.23;4.95;;;;;;;17.63;71.91;102127.88;5019652;28;20049;-49
2022/06/11 06:39:48;;;;;;;19.05;5.22;;;;;;;17.71;72.20;102128.41;5022329;28;20042;-49
2022/06/11 06:42:35;;;;;;;21.25;5.03;;;;;;;17.76;72.46;102126.44;5034192;28;20056;-52
2022/06/11 06:45:23;;;;;;;19.25;5.15;;;;;;;17.82;72.61;102125.34;5036172;28;20053;-51
2022/06/11 06:48:11;;;;;;;18.70;4.78;;;;;;;17.90;72.86;102125.84;5022715;28;20050;-51
2022/06/11 06:50:59;;;;;;;20.05;5.18;;;;;;;17.90;72.50;102126.66;5030144;28;20049;-49
2022/06/11 06:53:47;;;;;;;29.67;5.43;;;;;;;17.85;72.21;102135.78;5026095;28;20057;-49
2022/06/11 06:56:34;;;;;;;19.58;4.70;;;;;;;17.79;72.23;102136.88;5022718;28;20041;-50
2022/06/11 06:59:22;;;;;;;22.70;5.07;;;;;;;17.79;72.97;102136.88;5025055;28;20520;-50
2022/06/11 07:02:08;;;;;;;21.95;5.60;;;;;;;17.83;73.21;102124.22;5028158;28;20050;-52
2022/06/11 07:04:56;;;;;;;25.05;5.57;;;;;;;17.91;73.06;102128.28;5020641;28;20125;-50
2022/06/11 07:07:48;;;;;;;20.90;4.55;;;;;;;17.98;72.58;102133.50;5035692;28;20041;-46
2022/06/11 07:10:36;;;;;;;23.35;5.25;;;;;;;17.98;72.32;102134.31;5030577;28;20064;-51
2022/06/11 07:13:23;;;;;;;20.13;5.60;;;;;;;17.99;71.95;102135.13;5035394;28;20041;-51
2022/06/11 07:16:13;;;;;;;25.05;6.97;;;;;;;18.11;72.52;102138.34;5034207;28;20407;-48
2022/06/11 07:19:05;;;;;;;17.60;5.30;;;;;;;18.18;72.20;102133.34;5017793;28;20041;-49
2022/06/11 07:21:56;;;;;;;21.25;5.20;;;;;;;18.28;72.01;102130.53;5018001;28;20417;-47
2022/06/11 07:24:45;;;;;;;23.63;6.15;;;;;;;18.32;71.80;102130.75;5031068;28;20437;-50
2022/06/11 07:27:35;;;;;;;21.52;5.47;;;;;;;18.34;70.95;102133.22;5020490;28;20092;-49
2022/06/11 07:30:24;;;;;;;25.35;5.30;;;;;;;18.28;70.96;102130.53;5021666;28;20064;-49
2022/06/11 07:33:16;;;;;;;23.52;5.25;;;;;;;18.24;70.24;102121.16;5023922;28;20432;-51
2022/06/11 07:36:04;;;;;;;15.45;4.45;;;;;;;18.21;70.37;102116.22;5021111;28;20507;-50
2022/06/11 07:38:52;;;;;;;25.90;5.43;;;;;;;18.17;69.55;102131.69;5032577;28;20041;-49
2022/06/11 07:41:40;;;;;;;23.77;5.05;;;;;;;18.12;68.91;102123.47;5033346;28;20423;-50
2022/06/11 07:44:31;;;;;;;18.10;4.68;;;;;;;18.12;69.13;102117.94;5034669;28;20044;-49
2022/06/11 07:47:53;;;;;;;18.95;4.80;;;;;;;18.15;69.76;102124.81;5034863;28;20412;-47
2022/06/11 07:50:29;;;;;;;19.83;5.22;;;;;;;18.19;69.95;102128.66;5018328;28;20042;-47
2022/06/11 07:53:19;;;;;;;20.70;4.70;;;;;;;18.18;70.80;102133.34;5022810;28;20043;-47
2022/06/11 07:56:07;;;;;;;19.23;4.88;;;;;;;18.23;69.85;102129.72;5030140;28;20046;-48
2022/06/11 07:58:54;;;;;;;18.52;4.88;;;;;;;18.24;68.59;102128.63;5029553;28;20446;-47
2022/06/11 08:01:22;;;;;;;23.83;6.88;;;;;;;18.31;69.46;102140.97;5019066;28;20076;-47
2022/06/11 08:04:10;;;;;;;15.80;5.35;;;;;;;18.31;69.56;102138.22;5022651;28;20543;-48
2022/06/11 08:06:57;;;;;;;20.92;5.70;;;;;;;18.35;67.89;102141.22;5030251;28;20057;-49
2022/06/11 08:09:45;;;;;;;19.35;5.25;;;;;;;18.35;65.19;102144.00;5026208;28;20067;-51
2022/06/11 08:12:33;;;;;;;19.98;4.70;;;;;;;18.34;66.55;102141.50;5032399;28;20046;-50
2022/06/11 08:15:21;;;;;;;19.63;4.95;;;;;;;18.40;65.98;102145.84;5031330;28;20141;-53
2022/06/11 08:18:09;;;;;;;16.25;5.13;;;;;;;18.42;66.84;102155.50;5032634;28;20059;-50
2022/06/11 08:20:58;;;;;;;24.15;5.22;;;;;;;18.43;67.92;102151.63;5017666;28;20500;-48
2022/06/11 08:23:45;;;;;;;17.92;4.68;;;;;;;18.41;68.71;102150.28;5030393;28;20056;-48
2022/06/11 08:26:34;;;;;;;25.92;5.75;;;;;;;18.42;69.07;102157.44;5027466;28;20050;-49
2022/06/11 08:29:10;;;;;;;18.65;5.55;;;;;;;18.43;69.34;102153.59;5029395;28;20084;-49
2022/06/11 08:31:58;;;;;;;17.55;5.78;;;;;;;18.48;69.60;102167.34;5025320;28;20075;-47
2022/06/11 08:34:46;;;;;;;21.33;5.30;;;;;;;18.52;68.89;102172.00;5018641;28;20037;-51
2022/06/11 08:37:34;;;;;;;26.17;9.15;;;;;;;18.73;71.34;102175.38;5032756;28;20133;-49
2022/06/11 08:40:21;;;;;;;21.38;5.80;;;;;;;18.83;69.27;102160.72;5032762;28;20049;-50
2022/06/11 08:43:18;;;;;;;29.00;8.60;;;;;;;18.90;71.70;102165.88;5020407;28;20050;-52
2022/06/11 08:46:17;;;;;;;24.52;6.05;;;;;;;18.94;69.10;102169.69;5026193;28;20041;-50
2022/06/11 08:49:04;;;;;;;21.35;5.40;;;;;;;18.97;66.66;102173.81;5023997;28;20096;-47
2022/06/11 08:51:58;;;;;;;19.33;5.03;;;;;;;18.96;65.65;102178.53;5024228;28;20038;-50
2022/06/11 08:54:47;;;;;;;21.85;5.60;;;;;;;19.05;66.06;102176.78;5024192;28;20485;-50
2022/06/11 08:58:01;;;;;;;17.65;4.57;;;;;;;18.98;64.25;102168.00;5032696;28;20508;-52
2022/06/11 09:01:00;;;;;;;21.60;5.43;;;;;;;18.92;64.65;102171.94;5029406;28;20385;-51
2022/06/11 09:04:07;;;;;;;19.23;4.90;;;;;;;18.91;65.50;102165.59;5019820;28;20044;-47
2022/06/11 09:07:02;;;;;;;18.77;4.80;;;;;;;19.01;65.23;102167.41;5028552;28;20050;-48
2022/06/11 09:09:55;;;;;;;18.33;4.83;;;;;;;19.06;64.09;102172.88;5033221;28;20455;-49
2022/06/11 09:13:13;;;;;;;20.85;5.30;;;;;;;19.14;63.56;102166.72;5023051;28;20129;-49
2022/06/11 09:16:16;;;;;;;17.48;5.45;;;;;;;19.24;64.41;102163.03;5019939;28;20050;-50
2022/06/11 09:19:38;;;;;;;21.80;5.20;;;;;;;19.25;63.56;102155.56;5013440;28;20049;-48
2022/06/11 09:23:00;;;;;;;17.92;5.13;;;;;;;19.32;64.48;102151.31;5014495;28;20060;-49
2022/06/11 09:25:56;;;;;;;22.27;4.97;;;;;;;19.34;63.58;102164.84;5012393;28;20057;-53
2022/06/11 09:28:54;;;;;;;25.20;5.80;;;;;;;19.31;64.58;102163.50;5012350;28;20057;-52
2022/06/11 09:31:59;;;;;;;15.85;4.90;;;;;;;19.40;65.24;102160.06;5020649;28;20033;-51
2022/06/11 09:34:51;;;;;;;22.67;5.00;;;;;;;19.40;63.24;102163.66;5012555;28;20052;-54
2022/06/11 09:38:16;;;;;;;21.90;4.85;;;;;;;19.45;62.89;102168.31;5015020;28;20065;-47
2022/06/11 09:41:12;;;;;;;21.55;4.63;;;;;;;19.54;62.62;102163.78;5015304;28;20057;-47
2022/06/11 09:44:23;;;;;;;16.67;4.85;;;;;;;19.59;61.34;102161.75;5003157;28;20057;-48
2022/06/11 09:47:25;;;;;;;20.90;5.50;;;;;;;19.65;62.34;102158.91;5019430;28;20052;-50
2022/06/11 09:50:40;;;;;;;21.90;5.07;;;;;;;19.61;59.35;102160.66;5027585;28;20488;-49
2022/06/11 09:53:58;;;;;;;17.17;4.15;;;;;;;19.57;61.20;102163.97;5023337;28;20054;-52
2022/06/11 09:57:04;;;;;;;21.25;4.78;;;;;;;19.53;62.39;102168.47;5013019;28;20524;-52
2022/06/11 10:00:02;;;;;;;26.05;5.78;;;;;;;19.48;62.57;102164.94;5031759;28;20045;-49
2022/06/11 10:03:30;;;;;;;14.55;4.35;;;;;;;19.51;63.23;102164.38;5025320;28;20081;-51
2022/06/11 10:06:31;;;;;;;20.05;4.82;;;;;;;19.59;62.58;102167.28;5023573;28;20497;-51
2022/06/11 10:09:29;;;;;;;21.02;5.35;;;;;;;19.66;63.39;102168.88;5022258;28;20045;-49
2022/06/11 10:12:42;;;;;;;20.80;5.30;;;;;;;19.74;63.81;102171.00;5026052;28;20056;-48
2022/06/11 10:15:38;;;;;;;20.13;5.78;;;;;;;19.75;62.48;102170.72;5036641;28;20044;-52
2022/06/11 10:18:30;;;;;;;21.02;5.82;;;;;;;19.72;62.17;102170.47;5033293;28;20144;-47
2022/06/11 10:21:21;;;;;;;21.17;5.10;;;;;;;19.73;61.86;102174.91;5022407;28;20393;-50
2022/06/11 10:24:12;;;;;;;18.48;4.88;;;;;;;19.75;62.57;102170.72;5035529;28;20046;-47
2022/06/11 10:27:06;;;;;;;18.40;4.93;;;;;;;19.79;62.95;102168.16;5036169;28;20051;-49
2022/06/11 10:29:56;;;;;;;18.40;4.88;;;;;;;19.86;63.26;102176.09;5028881;28;20058;-48
2022/06/11 10:32:44;;;;;;;18.40;4.80;;;;;;;19.93;63.20;102174.59;5005605;28;20060;-49
2022/06/11 10:35:41;;;;;;;24.27;5.68;;;;;;;20.00;62.97;102166.75;5032688;28;20517;-51
2022/06/11 10:38:34;;;;;;;18.45;4.60;;;;;;;20.04;63.20;102171.72;4324952;28;10000064;-49
2022/06/11 10:42:00;;;;;;;14.40;4.00;;;;;;;20.08;64.35;102167.19;5031030;28;20041;-49
2022/06/11 10:44:53;;;;;;;21.45;5.63;;;;;;;20.18;62.59;102178.13;5029685;28;20053;-48
2022/06/11 10:47:44;;;;;;;17.65;4.68;;;;;;;20.21;64.02;102166.47;5013690;28;20060;-50
2022/06/11 10:50:35;;;;;;;19.15;5.40;;;;;;;20.23;63.15;102172.53;5010174;28;20390;-51
2022/06/11 10:53:41;;;;;;;25.45;6.38;;;;;;;20.17;62.62;102168.16;5025459;28;20049;-49
2022/06/11 10:56:47;;;;;;;24.52;6.10;;;;;;;20.04;63.19;102167.00;5025521;28;20064;-49
2022/06/11 10:59:43;;;;;;;28.60;6.40;;;;;;;20.05;62.88;102167.81;5025495;28;20049;-49
2022/06/11 11:02:36;;;;;;;24.42;5.53;;;;;;;20.03;64.10;102158.97;5012251;28;20049;-49
2022/06/11 11:05:24;;;;;;;22.08;5.82;;;;;;;20.09;62.88;102160.56;5029363;28;20049;-52
2022/06/11 11:08:13;;;;;;;24.63;5.90;;;;;;;20.08;62.91;102161.66;5025442;28;20064;-51
2022/06/11 11:11:01;;;;;;;23.55;5.53;;;;;;;20.06;62.42;102153.69;5021621;28;20049;-48
2022/06/11 11:13:50;;;;;;;22.42;4.70;;;;;;;20.11;61.63;102161.09;5026030;28;20037;-51
2022/06/11 11:16:40;;;;;;;27.52;5.95;;;;;;;20.21;62.00;102155.38;5025808;28;20050;-49
2022/06/11 11:19:33;;;;;;;20.35;5.45;;;;;;;20.31;61.40;102160.75;5020062;28;20060;-49
2022/06/11 11:22:21;;;;;;;21.92;5.13;;;;;;;20.41;59.43;102155.03;5025878;28;20400;-50
2022/06/11 11:25:16;;;;;;;12.57;3.83;;;;;;;20.53;63.75;102146.25;5023143;28;20046;-49
2022/06/11 11:28:06;;;;;;;22.50;5.47;;;;;;;20.61;60.21;102151.16;4999990;28;20054;-50
2022/06/11 11:31:21;;;;;;;22.02;5.20;;;;;;;20.68;58.87;102150.72;5013830;28;20508;-47
2022/06/11 11:34:20;;;;;;;15.95;3.90;;;;;;;20.73;60.02;102156.19;5025874;28;20049;-49
2022/06/11 11:37:14;;;;;;;20.08;4.90;;;;;;;20.75;57.69;102153.13;5022182;28;20050;-48
2022/06/11 11:40:02;;;;;;;18.85;4.93;;;;;;;20.68;57.82;102144.38;5026980;28;20072;-46
2022/06/11 11:42:55;;;;;;;20.08;5.10;;;;;;;20.67;58.36;102145.53;5031684;28;20045;-49
2022/06/11 11:45:43;;;;;;;15.32;4.32;;;;;;;20.73;60.51;102144.28;5029386;28;20053;-46
2022/06/11 11:48:52;;;;;;;10.68;3.80;;;;;;;20.88;60.36;102157.03;5020930;28;20049;-48
2022/06/11 11:51:40;;;;;;;22.85;5.13;;;;;;;20.95;58.54;102151.91;5019579;28;20046;-48
2022/06/11 11:54:28;;;;;;;18.60;4.78;;;;;;;20.96;58.29;102143.31;5031552;28;20053;-47
2022/06/11 11:57:16;;;;;;;11.73;3.78;;;;;;;20.99;61.51;102139.91;5029065;28;20420;-48
2022/06/11 12:00:23;;;;;;;13.40;3.80;;;;;;;21.01;58.78;102142.38;5013291;28;20103;-49
2022/06/11 12:03:29;;;;;;;19.95;4.90;;;;;;;20.95;56.98;102135.28;5025018;28;20053;-49
2022/06/11 12:06:27;;;;;;;18.85;5.13;;;;;;;20.93;57.77;102132.84;5027567;28;20134;-47
2022/06/11 12:09:30;;;;;;;12.93;3.90;;;;;;;20.99;58.69;102137.13;5029780;28;20052;-49
2022/06/11 12:12:30;;;;;;;20.23;4.97;;;;;;;21.09;57.43;102124.22;5020993;28;20060;-51
2022/06/11 12:15:19;;;;;;;13.45;3.58;;;;;;;21.12;58.07;102124.44;5030620;28;20053;-48
2022/06/11 12:18:14;;;;;;;19.10;5.00;;;;;;;21.17;57.58;102115.19;5029143;28;20401;-50
2022/06/11 12:21:10;;;;;;;15.98;4.45;;;;;;;21.24;57.85;102127.50;5015740;28;20050;-50
2022/06/11 12:24:18;;;;;;;14.05;4.28;;;;;;;21.31;59.54;102124.34;5018834;28;20856;-50
2022/06/11 12:27:24;;;;;;;14.23;3.78;;;;;;;21.39;57.85;102122.78;5028894;28;20052;-47
2022/06/11 12:30:24;;;;;;;14.35;3.85;;;;;;;21.40;56.21;102125.25;5024797;28;20061;-49
2022/06/11 12:33:14;;;;;;;20.95;5.13;;;;;;;21.41;55.83;102126.09;5016449;28;20062;-49
2022/06/11 12:36:05;;;;;;;18.33;5.30;;;;;;;21.42;56.36;102124.94;5019199;28;20053;-50
2022/06/11 12:39:27;;;;;;;18.40;4.63;;;;;;;21.45;56.00;102118.78;5027394;28;20244;-51
2022/06/11 12:42:40;;;;;;;11.98;3.50;;;;;;;21.44;57.86;102117.16;5027808;28;20045;-53
2022/06/11 12:45:37;;;;;;;20.67;4.78;;;;;;;21.45;56.53;102121.56;5026221;28;20054;-47
2022/06/11 12:48:48;;;;;;;15.32;4.60;;;;;;;21.37;57.39;102130.59;5022111;28;20075;-49
2022/06/11 12:52:01;;;;;;;22.33;5.10;;;;;;;21.33;56.91;102124.00;5020701;28;20057;-53
2022/06/11 12:55:16;;;;;;;24.30;5.45;;;;;;;21.27;57.75;102129.66;5024322;28;20423;-54
2022/06/11 12:58:28;;;;;;;18.27;4.68;;;;;;;21.28;58.28;102125.75;5015882;28;20132;-52
2022/06/11 13:02:06;;;;;;;21.85;5.50;;;;;;;21.38;57.45;102126.66;5030915;28;20110;-54
2022/06/11 13:05:14;;;;;;;21.48;5.07;;;;;;;21.34;57.83;102123.69;5021810;28;20515;-49
2022/06/11 13:08:30;;;;;;;22.77;5.82;;;;;;;21.31;57.96;102131.81;5022132;28;20051;-51
2022/06/11 13:11:20;;;;;;;;;;;;;;;21.27;57.23;102123.28;5029520;28;20053;-49
2022/06/11 13:14:26;;;;;;;21.17;5.45;;;;;;;21.28;57.33;102125.75;5028428;28;19947;-51
2022/06/11 13:17:42;;;;;;;20.85;5.05;;;;;;;21.38;57.48;102127.50;5028137;28;20053;-53
2022/06/11 13:20:47;;;;;;;18.15;4.65;;;;;;;21.50;57.10;102129.75;5024802;28;20050;-50
2022/06/11 13:23:59;;;;;;;17.60;4.70;;;;;;;21.60;54.76;102124.00;5028702;28;20056;-50
2022/06/11 13:27:00;;;;;;;16.42;4.40;;;;;;;21.70;56.47;102134.88;5020185;28;20149;-50